Terminal Aerodrome Forecast
Issued by NWS

Home | Current Version | Previous Version | Graphics & Text | Print | Product List | Glossary On
Versions: 1 2 3 4 5 6 7 8 9 10 11 12 13
522
FTUS43 KMPX 031138
TAFRNH
TAF
KRNH 031138Z 0312/0412 28004KT P6SM OVC020
     FM031600 22004KT P6SM OVC025
     FM031900 15005KT P6SM BKN035
     FM040500 14007KT P6SM BKN030 OVC090
      TEMPO 0406/0408 4SM -SN OVC020
     FM040800 15008KT 2SM -SN OVC010=

USA.gov is the U.S. government's official web portal to all federal, state and local government web resources and services.